Briefing drone pour Talant

Rechercher une autre localisation

Conditions de vol :


Nous sommes le : Vendredi 23 février 2024
Il est 03:25 UTC (04:25 LT)

Lever de soleil : 06:05 UTC (07:05 LT)
Coucher de soleil : 17:41 UTC (18:41 LT)

Météo

L'essentiel des conditions de vol

VIGILANCE MÉTÉO FRANCE - Côte-dOr (21)
Pas de vigilances particulieres
CARTE TEMSI
CARTES DES FRONTS
METAR de LFSD
LFSD 230300Z AUTO 19007KT CAVOK 04/01 Q1001

Date d'émission: 23/02/2024
Heure d'émission: 03:00 UTC
Vent: 190° pour 7 KT (13 km/h)
Visibilité horizontale: > 10 km
Plafond : Plafond et visibilité OK (CAVOK)
Température: 4 °C
Point de rosée: 1 °C
Humidité: 81%
Pression (QNH): 1001 hPa
TAF de LFSD
LFSD 010600Z 0100/0124 CNL

Conditions prévues :

Heure d'émission : Bulletin éffectué le 01 à 00:00 UTC
Prévision : Valide du 01 a 00:00 UTC au 01 a 23:59 UTC
Nuages : à 0ft (0 m)
WEBCAM POUR TALANT

Réglementation

Voler en sécurité

CARTES AERONAUTIQUE 1/500.000
CARTE AZBA (Reseau basse altitude)
CARTES VAC (LFSD)
SUP AIP




Chargement des AIP...
NOTAM (TALANT + Terrain à proximité / FIR )




Chargement des NOTAMS...
CONTACT PREFECTURE 21
Côte-dOr (21) : [email protected]


Avertissement : Les données mises à disposition sont indicatives. Oxygène Drone ne pourra être tenu responsable de dégâts causés aux biens et aux personnes.